createdAt,value
2023-05-06T00:00:33.481Z,0.4824
2023-05-06T00:01:41.448Z,0.4711
2023-05-06T00:02:49.678Z,0.4616
2023-05-06T00:03:57.838Z,0.4800
2023-05-06T00:05:05.624Z,0.4917
2023-05-06T00:06:13.797Z,0.4466
2023-05-06T00:07:21.991Z,0.4459
2023-05-06T00:08:29.857Z,0.4440
2023-05-06T00:09:37.998Z,0.4489
2023-05-06T00:10:45.888Z,0.4497
2023-05-06T00:11:54.084Z,0.4644
2023-05-06T00:13:02.222Z,0.4597
2023-05-06T00:14:10.190Z,0.4525
2023-05-06T00:15:18.364Z,0.4679
2023-05-06T00:16:26.352Z,0.4678
2023-05-06T00:17:34.400Z,0.4664
2023-05-06T00:18:42.512Z,0.4689
2023-05-06T00:19:50.480Z,0.4652
2023-05-06T00:20:58.393Z,0.4669
2023-05-06T00:22:06.497Z,0.4620
2023-05-06T00:23:14.642Z,0.4599
2023-05-06T00:24:22.734Z,0.4806
2023-05-06T00:25:30.717Z,0.4662
2023-05-06T00:26:38.703Z,0.4684
2023-05-06T00:27:46.921Z,0.4698
2023-05-06T00:28:54.939Z,0.4681
2023-05-06T00:30:02.965Z,0.4685
2023-05-06T00:31:11.240Z,0.4648
2023-05-06T00:32:19.177Z,0.4785
2023-05-06T00:33:27.031Z,0.4869
2023-05-06T00:34:35.277Z,0.4824
2023-05-06T00:35:43.272Z,0.4660
2023-05-06T00:36:51.460Z,0.4574
2023-05-06T00:37:59.513Z,0.4603
2023-05-06T00:39:07.489Z,0.4508
2023-05-06T00:40:15.513Z,0.4611
2023-05-06T00:41:23.602Z,0.4742
2023-05-06T00:42:31.685Z,0.4719
2023-05-06T00:43:39.691Z,0.4627
2023-05-06T00:44:47.609Z,0.4651
2023-05-06T00:45:55.993Z,0.4571
2023-05-06T00:47:03.819Z,0.4644
2023-05-06T00:48:11.991Z,0.4536
2023-05-06T00:49:19.834Z,0.4475
2023-05-06T00:50:27.992Z,0.4497
2023-05-06T00:51:36.081Z,0.4635
2023-05-06T00:52:44.212Z,0.4555
2023-05-06T00:53:52.276Z,0.4577
2023-05-06T00:55:00.315Z,0.4612
2023-05-06T00:56:08.198Z,0.4463
2023-05-06T00:57:16.523Z,0.4578
2023-05-06T00:58:24.506Z,0.4846
2023-05-06T00:59:32.472Z,0.4808
2023-05-06T01:00:40.514Z,0.4777
2023-05-06T01:01:48.598Z,0.4787
2023-05-06T01:02:56.907Z,0.4651
2023-05-06T01:04:04.754Z,0.4607
2023-05-06T01:05:12.812Z,0.4536
2023-05-06T01:06:20.999Z,0.4658
2023-05-06T01:07:28.883Z,0.4648
2023-05-06T01:08:36.980Z,0.4710
2023-05-06T01:09:44.881Z,0.4681
2023-05-06T01:10:53.064Z,0.4684
2023-05-06T01:12:01.131Z,0.4624
2023-05-06T01:13:09.335Z,0.4821
2023-05-06T01:14:17.212Z,0.4885
2023-05-06T01:15:25.262Z,0.4690
2023-05-06T01:16:33.384Z,0.4640
2023-05-06T01:17:41.545Z,0.4587
2023-05-06T01:18:49.506Z,0.4630
2023-05-06T01:19:57.500Z,0.4658
2023-05-06T01:21:05.562Z,0.4578
2023-05-06T01:22:13.786Z,0.4536
2023-05-06T01:23:21.835Z,0.4711
2023-05-06T01:24:29.763Z,0.4763
2023-05-06T01:25:37.754Z,0.4670
2023-05-06T01:26:45.838Z,0.4742
2023-05-06T01:27:53.898Z,0.4740
2023-05-06T01:29:02.049Z,0.4622
2023-05-06T01:30:10.010Z,0.4563
2023-05-06T01:31:18.105Z,0.4504
2023-05-06T01:32:26.010Z,0.4351
2023-05-06T01:33:34.293Z,0.4579
2023-05-06T01:34:42.393Z,0.4720
2023-05-06T01:35:50.284Z,0.4718
2023-05-06T01:36:58.471Z,0.4725
2023-05-06T01:38:06.438Z,0.4421
2023-05-06T01:39:14.520Z,0.4438
2023-05-06T01:40:22.602Z,0.4474
2023-05-06T01:41:30.614Z,0.4552
2023-05-06T01:42:38.806Z,0.4543
2023-05-06T01:43:46.719Z,0.4354
2023-05-06T01:44:54.608Z,0.4450
2023-05-06T01:46:02.814Z,0.4557
2023-05-06T01:47:11.006Z,0.4597
2023-05-06T01:48:19.015Z,0.4569
2023-05-06T01:49:27.051Z,0.4546
2023-05-06T01:50:34.928Z,0.4611
2023-05-06T01:51:43.447Z,0.4566
2023-05-06T01:52:51.104Z,0.4622
2023-05-06T01:53:59.252Z,0.4514
2023-05-06T01:55:07.471Z,0.4759
2023-05-06T01:56:15.165Z,0.4749
2023-05-06T01:57:23.371Z,0.4617
2023-05-06T01:58:31.560Z,0.4555
2023-05-06T01:59:39.534Z,0.4551
2023-05-06T02:00:47.497Z,0.4440
2023-05-06T02:01:55.775Z,0.4355
2023-05-06T02:03:03.695Z,0.4417
2023-05-06T02:04:11.827Z,0.4503
2023-05-06T02:05:19.732Z,0.4620
2023-05-06T02:06:27.788Z,0.4525
2023-05-06T02:07:35.942Z,0.4651
2023-05-06T02:08:43.960Z,0.4839
2023-05-06T02:09:51.840Z,0.4776
2023-05-06T02:11:00.429Z,0.4708
2023-05-06T02:12:08.078Z,0.4646
2023-05-06T02:13:16.197Z,0.4663
2023-05-06T02:14:24.324Z,0.4581
2023-05-06T02:15:32.182Z,0.4556
2023-05-06T02:16:40.422Z,0.4540
2023-05-06T02:17:48.472Z,0.4477
2023-05-06T02:18:56.362Z,0.4461
2023-05-06T02:20:04.549Z,0.4627
2023-05-06T02:21:12.732Z,0.4621
2023-05-06T02:22:20.808Z,0.4439
2023-05-06T02:23:28.766Z,0.4465
2023-05-06T02:24:36.734Z,0.4334
2023-05-06T02:25:44.851Z,0.4354
2023-05-06T02:26:52.753Z,0.4634
2023-05-06T02:28:00.930Z,0.4551
2023-05-06T02:29:09.021Z,0.4703
2023-05-06T02:30:17.210Z,0.4846
2023-05-06T02:31:25.141Z,0.5022
2023-05-06T02:32:33.026Z,0.5003
2023-05-06T02:33:41.301Z,0.4817
2023-05-06T02:34:49.291Z,0.4655
2023-05-06T02:35:57.549Z,0.4624
2023-05-06T02:37:05.363Z,0.4545
2023-05-06T02:38:13.431Z,0.4590
2023-05-06T02:39:21.544Z,0.4623
2023-05-06T02:40:29.621Z,0.4598
2023-05-06T02:41:37.575Z,0.4502
2023-05-06T02:42:45.656Z,0.4531
2023-05-06T02:43:53.717Z,0.4518
2023-05-06T02:45:01.797Z,0.4577
2023-05-06T02:46:09.885Z,0.4591
2023-05-06T02:47:17.856Z,0.4624
2023-05-06T02:48:25.905Z,0.4610
2023-05-06T02:49:33.929Z,0.4664
2023-05-06T02:50:41.834Z,0.4559
2023-05-06T02:51:50.194Z,0.4640
2023-05-06T02:52:58.111Z,0.4777
2023-05-06T02:54:06.157Z,0.4852
2023-05-06T02:55:14.422Z,0.4852
2023-05-06T02:56:22.123Z,0.4780
2023-05-06T02:57:30.324Z,0.4754
2023-05-06T02:58:38.329Z,0.4738
2023-05-06T02:59:46.429Z,0.4740
2023-05-06T03:00:54.639Z,0.4505
2023-05-06T03:02:02.489Z,0.4256
2023-05-06T03:03:10.677Z,0.4251
2023-05-06T03:04:18.675Z,0.4346
2023-05-06T03:05:26.698Z,0.4464
2023-05-06T03:06:34.694Z,0.4473
2023-05-06T03:07:42.644Z,0.4443
2023-05-06T03:08:50.849Z,0.4494
2023-05-06T03:09:58.754Z,0.4520
2023-05-06T03:11:08.239Z,0.4409
2023-05-06T03:12:14.981Z,0.4678
2023-05-06T03:13:23.009Z,0.4714
2023-05-06T03:14:31.101Z,0.4618
2023-05-06T03:15:39.028Z,0.4700
2023-05-06T03:16:47.393Z,0.4860
2023-05-06T03:17:55.332Z,0.4807
2023-05-06T03:19:03.216Z,0.4676
2023-05-06T03:20:11.481Z,0.4565
2023-05-06T03:21:19.485Z,0.4564
2023-05-06T03:22:27.729Z,0.4669
2023-05-06T03:23:35.617Z,0.4610
2023-05-06T03:24:43.586Z,0.4566
2023-05-06T03:25:51.669Z,0.4545
2023-05-06T03:26:59.968Z,0.4620
2023-05-06T03:28:07.808Z,0.4499
2023-05-06T03:29:15.903Z,0.4635
2023-05-06T03:30:23.778Z,0.4718
2023-05-06T03:31:31.963Z,0.4548
2023-05-06T03:32:40.011Z,0.4606
2023-05-06T03:33:48.007Z,0.4600
2023-05-06T03:34:56.155Z,0.4557
2023-05-06T03:36:04.012Z,0.4506
2023-05-06T03:37:12.307Z,0.4594
2023-05-06T03:38:20.209Z,0.4636
2023-05-06T03:39:28.417Z,0.4773
2023-05-06T03:40:36.373Z,0.4802
2023-05-06T03:41:44.314Z,0.4878
2023-05-06T03:42:52.440Z,0.4741
2023-05-06T03:44:00.509Z,0.4767
2023-05-06T03:45:09.233Z,0.4753
2023-05-06T03:46:16.700Z,0.4759
2023-05-06T03:47:24.691Z,0.4797
2023-05-06T03:48:32.774Z,0.4792
2023-05-06T03:49:41.068Z,0.4694
2023-05-06T03:50:48.805Z,0.4617
2023-05-06T03:51:56.929Z,0.4798
2023-05-06T03:53:04.855Z,0.4694
2023-05-06T03:54:13.012Z,0.4522
2023-05-06T03:55:21.087Z,0.4535
2023-05-06T03:56:29.059Z,0.4569
2023-05-06T03:57:37.178Z,0.4721
2023-05-06T03:58:45.250Z,0.4580
2023-05-06T03:59:53.458Z,0.4607
2023-05-06T04:01:01.380Z,0.4671
2023-05-06T04:02:09.480Z,0.4761
2023-05-06T04:03:17.724Z,0.4857
2023-05-06T04:04:25.372Z,0.4881
2023-05-06T04:05:33.655Z,0.4634
2023-05-06T04:06:41.692Z,0.4715
2023-05-06T04:07:49.677Z,0.4885
2023-05-06T04:08:57.682Z,0.4769
2023-05-06T04:10:05.737Z,0.4775
2023-05-06T04:11:13.837Z,0.4859
2023-05-06T04:12:21.916Z,0.4765
2023-05-06T04:13:30.000Z,0.4668
2023-05-06T04:14:38.088Z,0.4624
2023-05-06T04:15:46.099Z,0.4566
2023-05-06T04:16:54.241Z,0.4742
2023-05-06T04:18:02.213Z,0.4901
2023-05-06T04:19:10.337Z,0.4847
2023-05-06T04:20:18.302Z,0.4667
2023-05-06T04:21:26.250Z,0.4710
2023-05-06T04:22:34.388Z,0.4610
2023-05-06T04:23:42.410Z,0.4590
2023-05-06T04:24:50.510Z,0.4834
2023-05-06T04:25:58.541Z,0.4857
2023-05-06T04:27:06.582Z,0.4772
2023-05-06T04:28:14.650Z,0.4648
2023-05-06T04:29:22.702Z,0.4692
2023-05-06T04:30:30.770Z,0.4660
2023-05-06T04:31:38.923Z,0.4689
2023-05-06T04:32:46.930Z,0.4641
2023-05-06T04:33:54.849Z,0.4630
2023-05-06T04:35:02.997Z,0.4639
2023-05-06T04:36:11.022Z,0.4676
2023-05-06T04:37:19.154Z,0.4599
2023-05-06T04:38:27.214Z,0.4653
2023-05-06T04:39:35.188Z,0.4801
2023-05-06T04:40:43.308Z,0.4848
2023-05-06T04:41:51.324Z,0.5016
2023-05-06T04:42:59.396Z,0.4960
2023-05-06T04:44:07.429Z,0.4859
2023-05-06T04:45:15.483Z,0.4765
2023-05-06T04:46:23.670Z,0.4623
2023-05-06T04:47:31.700Z,0.4490
2023-05-06T04:48:39.681Z,0.4512
2023-05-06T04:49:47.647Z,0.4707
2023-05-06T04:50:55.688Z,0.4841
2023-05-06T04:52:03.777Z,0.4988
2023-05-06T04:53:11.802Z,0.4841
2023-05-06T04:54:19.881Z,0.4685
2023-05-06T04:55:27.932Z,0.4690
2023-05-06T04:56:36.138Z,0.4674
2023-05-06T04:57:44.103Z,0.4571
2023-05-06T04:58:52.027Z,0.4459
2023-05-06T05:00:00.223Z,0.4656
2023-05-06T05:01:08.277Z,0.4618
2023-05-06T05:02:16.322Z,0.4427
2023-05-06T05:03:24.522Z,0.4440
2023-05-06T05:04:32.309Z,0.4470
2023-05-06T05:05:40.470Z,0.4597
2023-05-06T05:06:48.473Z,0.4565
2023-05-06T05:07:56.617Z,0.4556
2023-05-06T05:09:04.760Z,0.4647
2023-05-06T05:10:12.658Z,0.4657
2023-05-06T05:11:20.638Z,0.4652
2023-05-06T05:12:28.809Z,0.4578
2023-05-06T05:13:36.912Z,0.4621
2023-05-06T05:14:44.967Z,0.4461
2023-05-06T05:15:52.982Z,0.4680
2023-05-06T05:17:01.039Z,0.4732
2023-05-06T05:18:09.224Z,0.4760
2023-05-06T05:19:17.156Z,0.4605
2023-05-06T05:20:25.190Z,0.4549
2023-05-06T05:21:33.248Z,0.4449
2023-05-06T05:22:41.368Z,0.4427
2023-05-06T05:23:49.412Z,0.4555
2023-05-06T05:24:57.362Z,0.4677
2023-05-06T05:26:05.440Z,0.4679
2023-05-06T05:27:13.483Z,0.4606
2023-05-06T05:28:21.594Z,0.4720
2023-05-06T05:29:29.592Z,0.4923
2023-05-06T05:30:37.613Z,0.4960
2023-05-06T05:31:45.791Z,0.4698
2023-05-06T05:32:53.971Z,0.4710
2023-05-06T05:34:01.961Z,0.4729
2023-05-06T05:35:10.187Z,0.4736
2023-05-06T05:36:17.874Z,0.4469
2023-05-06T05:37:26.020Z,0.4646
2023-05-06T05:38:34.111Z,0.4703
2023-05-06T05:39:42.156Z,0.4653
2023-05-06T05:40:50.271Z,0.4652
2023-05-06T05:41:58.224Z,0.4778
2023-05-06T05:43:06.300Z,0.4791
2023-05-06T05:44:14.363Z,0.4728
2023-05-06T05:45:22.431Z,0.4669
2023-05-06T05:46:30.460Z,0.4769
2023-05-06T05:47:38.461Z,0.4856
2023-05-06T05:48:46.525Z,0.4660
2023-05-06T05:49:54.645Z,0.4474
2023-05-06T05:51:02.648Z,0.4538
2023-05-06T05:52:10.748Z,0.4670
2023-05-06T05:53:18.719Z,0.4720
2023-05-06T05:54:26.840Z,0.4691
2023-05-06T05:55:34.879Z,0.4707
2023-05-06T05:56:42.959Z,0.4768
2023-05-06T05:57:51.056Z,0.4625
2023-05-06T05:58:59.076Z,0.4579
2023-05-06T06:00:07.095Z,0.4424
2023-05-06T06:01:15.237Z,0.4598
2023-05-06T06:02:23.375Z,0.4686
2023-05-06T06:03:31.440Z,0.4693
2023-05-06T06:04:39.574Z,0.4643
2023-05-06T06:05:47.414Z,0.4421
2023-05-06T06:06:55.502Z,0.4510
2023-05-06T06:08:03.981Z,0.4585
2023-05-06T06:09:11.579Z,0.4524
2023-05-06T06:10:19.588Z,0.4474
2023-05-06T06:11:27.703Z,0.4548
2023-05-06T06:12:35.913Z,0.4505
2023-05-06T06:13:43.770Z,0.4604
2023-05-06T06:14:51.901Z,0.4730
2023-05-06T06:15:59.900Z,0.4715
2023-05-06T06:17:07.962Z,0.4634
2023-05-06T06:18:16.079Z,0.4677
2023-05-06T06:19:24.108Z,0.4523
2023-05-06T06:20:32.133Z,0.4548
2023-05-06T06:21:40.172Z,0.4696
2023-05-06T06:22:48.518Z,0.4528
2023-05-06T06:23:56.449Z,0.4497
2023-05-06T06:25:04.398Z,0.4563
2023-05-06T06:26:12.568Z,0.4586
2023-05-06T06:27:20.545Z,0.4429
2023-05-06T06:28:28.629Z,0.4281
2023-05-06T06:29:36.761Z,0.4476
2023-05-06T06:30:44.610Z,0.4588
2023-05-06T06:31:52.953Z,0.4500
2023-05-06T06:33:00.897Z,0.4537
2023-05-06T06:34:08.930Z,0.4394
2023-05-06T06:35:16.912Z,0.4487
2023-05-06T06:36:24.944Z,0.4606
2023-05-06T06:37:33.045Z,0.4416
2023-05-06T06:38:41.058Z,0.4361
2023-05-06T06:39:49.223Z,0.4391
2023-05-06T06:40:57.320Z,0.4457
2023-05-06T06:42:05.305Z,0.4467
2023-05-06T06:43:13.220Z,0.4462
2023-05-06T06:44:21.379Z,0.4380
2023-05-06T06:45:29.413Z,0.4564
2023-05-06T06:46:37.439Z,0.4458
2023-05-06T06:47:45.545Z,0.4379
2023-05-06T06:48:53.470Z,0.4543
2023-05-06T06:50:01.672Z,0.4561
2023-05-06T06:51:09.577Z,0.4487
2023-05-06T06:52:17.744Z,0.4361
2023-05-06T06:53:25.802Z,0.4382
2023-05-06T06:54:33.885Z,0.4456
2023-05-06T06:55:41.914Z,0.4407
2023-05-06T06:56:49.963Z,0.4667
2023-05-06T06:57:58.063Z,0.4767
2023-05-06T06:59:06.145Z,0.4545
2023-05-06T07:00:14.358Z,0.4601
2023-05-06T07:01:22.242Z,0.4690
2023-05-06T07:02:30.195Z,0.4441
2023-05-06T07:03:38.328Z,0.4665
2023-05-06T07:04:46.426Z,0.4542
2023-05-06T07:05:54.395Z,0.4430
2023-05-06T07:07:02.460Z,0.4484
2023-05-06T07:08:10.608Z,0.4478
2023-05-06T07:09:18.660Z,0.4547
2023-05-06T07:10:26.874Z,0.4563
2023-05-06T07:11:34.605Z,0.4381
2023-05-06T07:12:42.773Z,0.4553
2023-05-06T07:13:50.841Z,0.4536
2023-05-06T07:14:58.852Z,0.4373
2023-05-06T07:16:07.017Z,0.4434
2023-05-06T07:17:14.983Z,0.4506
2023-05-06T07:18:23.145Z,0.4393
2023-05-06T07:19:31.156Z,0.4575
2023-05-06T07:20:39.356Z,0.4512
2023-05-06T07:21:47.257Z,0.4735
2023-05-06T07:22:55.452Z,0.4695
2023-05-06T07:24:03.341Z,0.4461
2023-05-06T07:25:11.735Z,0.4370
2023-05-06T07:26:19.439Z,0.4308
2023-05-06T07:27:27.514Z,0.4211
2023-05-06T07:28:35.511Z,0.4299
2023-05-06T07:29:43.778Z,0.4369
2023-05-06T07:30:51.689Z,0.4330
2023-05-06T07:31:59.846Z,0.4535
2023-05-06T07:33:07.945Z,0.4537
2023-05-06T07:34:15.865Z,0.4417
2023-05-06T07:35:24.028Z,0.4333
2023-05-06T07:36:32.094Z,0.4474
2023-05-06T07:37:40.172Z,0.4602
2023-05-06T07:38:48.178Z,0.4765
2023-05-06T07:39:56.169Z,0.4752
2023-05-06T07:41:04.170Z,0.4586
2023-05-06T07:42:12.264Z,0.4483
2023-05-06T07:43:20.398Z,0.4346
2023-05-06T07:44:28.428Z,0.4353
2023-05-06T07:45:36.396Z,0.4565
2023-05-06T07:46:44.635Z,0.4545
2023-05-06T07:47:52.848Z,0.4626
2023-05-06T07:49:00.804Z,0.4597
2023-05-06T07:50:08.775Z,0.4472
2023-05-06T07:51:16.771Z,0.4428
2023-05-06T07:52:24.750Z,0.4363
2023-05-06T07:53:32.842Z,0.4199
2023-05-06T07:54:40.841Z,0.4304
2023-05-06T07:55:49.010Z,0.4306
2023-05-06T07:56:57.028Z,0.4217
2023-05-06T07:58:05.066Z,0.4321
2023-05-06T07:59:13.251Z,0.4421
2023-05-06T08:00:21.121Z,0.4336
2023-05-06T08:01:29.357Z,0.4388
2023-05-06T08:02:37.353Z,0.4435
2023-05-06T08:03:45.474Z,0.4464
2023-05-06T08:04:53.622Z,0.4541
2023-05-06T08:06:01.540Z,0.4730
2023-05-06T08:07:09.602Z,0.4465
2023-05-06T08:08:17.682Z,0.4529
2023-05-06T08:09:25.630Z,0.4526
2023-05-06T08:10:33.676Z,0.4726
2023-05-06T08:11:41.714Z,0.4610
2023-05-06T08:12:49.811Z,0.4387
2023-05-06T08:13:57.863Z,0.4382
2023-05-06T08:15:06.021Z,0.4577
2023-05-06T08:16:14.052Z,0.4601
2023-05-06T08:17:22.106Z,0.4415
2023-05-06T08:18:30.439Z,0.4484
2023-05-06T08:19:38.197Z,0.4485
2023-05-06T08:20:46.201Z,0.4558
2023-05-06T08:21:54.320Z,0.4586
2023-05-06T08:23:02.326Z,0.4381
2023-05-06T08:24:10.403Z,0.4351
2023-05-06T08:25:18.482Z,0.4364
2023-05-06T08:26:26.558Z,0.4439
2023-05-06T08:27:34.614Z,0.4486
2023-05-06T08:28:42.642Z,0.4582
2023-05-06T08:29:50.767Z,0.4446
2023-05-06T08:30:58.812Z,0.4383
2023-05-06T08:32:06.974Z,0.4502
2023-05-06T08:33:14.905Z,0.4609
2023-05-06T08:34:23.058Z,0.4592
2023-05-06T08:35:31.031Z,0.4630
2023-05-06T08:36:39.138Z,0.4619
2023-05-06T08:37:47.097Z,0.4328
2023-05-06T08:38:55.139Z,0.4333
2023-05-06T08:40:03.241Z,0.4333
2023-05-06T08:41:11.297Z,0.4506
2023-05-06T08:42:19.307Z,0.4339
2023-05-06T08:43:27.349Z,0.4298
2023-05-06T08:44:35.452Z,0.4181
2023-05-06T08:45:43.528Z,0.4225
2023-05-06T08:46:51.588Z,0.4219
2023-05-06T08:47:59.732Z,0.4399
2023-05-06T08:49:07.759Z,0.4401
2023-05-06T08:50:15.682Z,0.4343
2023-05-06T08:51:26.007Z,0.4399
2023-05-06T08:52:31.826Z,0.4377
2023-05-06T08:53:39.855Z,0.4368
2023-05-06T08:54:47.927Z,0.4438
2023-05-06T08:55:55.934Z,0.4480
2023-05-06T08:57:04.024Z,0.4456
2023-05-06T08:58:12.248Z,0.4411
2023-05-06T08:59:20.142Z,0.4470
2023-05-06T09:00:28.205Z,0.4428
2023-05-06T09:01:36.363Z,0.4505
2023-05-06T09:02:44.468Z,0.4466
2023-05-06T09:03:52.490Z,0.4512
2023-05-06T09:05:00.429Z,0.4470
2023-05-06T09:06:08.538Z,0.4307
2023-05-06T09:07:16.567Z,0.4281
2023-05-06T09:08:24.689Z,0.4322
2023-05-06T09:09:32.623Z,0.4260
2023-05-06T09:10:40.704Z,0.4171
2023-05-06T09:11:48.730Z,0.4303
2023-05-06T09:12:56.909Z,0.4432
2023-05-06T09:14:04.886Z,0.4404
2023-05-06T09:15:13.185Z,0.4372
2023-05-06T09:16:21.066Z,0.4244
2023-05-06T09:17:29.084Z,0.4183
2023-05-06T09:18:37.184Z,0.4224
2023-05-06T09:19:45.160Z,0.4224
2023-05-06T09:20:53.252Z,0.4461
2023-05-06T09:22:01.402Z,0.4416
2023-05-06T09:23:09.408Z,0.4378
2023-05-06T09:24:17.390Z,0.4263
2023-05-06T09:25:25.465Z,0.4245
2023-05-06T09:26:33.523Z,0.4271
2023-05-06T09:27:41.706Z,0.4225
2023-05-06T09:28:49.764Z,0.4387
2023-05-06T09:29:57.676Z,0.4372
2023-05-06T09:31:05.718Z,0.4277
2023-05-06T09:32:13.804Z,0.4215
2023-05-06T09:33:21.838Z,0.4250
2023-05-06T09:34:29.869Z,0.4265
2023-05-06T09:35:37.964Z,0.4188
2023-05-06T09:36:46.160Z,0.4291
2023-05-06T09:37:54.069Z,0.4358
2023-05-06T09:39:02.151Z,0.4372
2023-05-06T09:40:10.174Z,0.4316
2023-05-06T09:41:18.136Z,0.4232
2023-05-06T09:42:26.329Z,0.4194
2023-05-06T09:43:34.303Z,0.4114
2023-05-06T09:44:42.358Z,0.4001
2023-05-06T09:45:50.434Z,0.4080
2023-05-06T09:46:58.541Z,0.4161
2023-05-06T09:48:06.621Z,0.4312
2023-05-06T09:49:14.587Z,0.4291
2023-05-06T09:50:22.634Z,0.4309
2023-05-06T09:51:30.728Z,0.4283
2023-05-06T09:52:38.690Z,0.4302
2023-05-06T09:53:46.746Z,0.4359
2023-05-06T09:54:54.957Z,0.4308
2023-05-06T09:56:02.915Z,0.4211
2023-05-06T09:57:11.016Z,0.4234
2023-05-06T09:58:19.204Z,0.4253
2023-05-06T09:59:27.101Z,0.4430
2023-05-06T10:00:35.148Z,0.4357
2023-05-06T10:01:43.280Z,0.4394
2023-05-06T10:02:51.447Z,0.4329
2023-05-06T10:03:59.447Z,0.4288
2023-05-06T10:05:07.625Z,0.4178
2023-05-06T10:06:15.513Z,0.4240
2023-05-06T10:07:23.525Z,0.4116
2023-05-06T10:08:31.661Z,0.4138
2023-05-06T10:09:39.607Z,0.4048
2023-05-06T10:10:47.906Z,0.3976
2023-05-06T10:11:55.739Z,0.4069
2023-05-06T10:13:03.849Z,0.4080
2023-05-06T10:14:12.058Z,0.4112
2023-05-06T10:15:19.909Z,0.4141
2023-05-06T10:16:28.015Z,0.4083
2023-05-06T10:17:36.318Z,0.3992
2023-05-06T10:18:44.031Z,0.4166
2023-05-06T10:19:52.198Z,0.4175
2023-05-06T10:21:00.206Z,0.4209
2023-05-06T10:22:08.197Z,0.4261
2023-05-06T10:23:16.410Z,0.4176
2023-05-06T10:24:24.395Z,0.4209
2023-05-06T10:25:32.555Z,0.4135
2023-05-06T10:26:40.564Z,0.4158
2023-05-06T10:27:48.802Z,0.4190
2023-05-06T10:28:56.660Z,0.4256
2023-05-06T10:30:04.632Z,0.4349
2023-05-06T10:31:12.782Z,0.4318
2023-05-06T10:32:20.982Z,0.4230
2023-05-06T10:33:29.016Z,0.4192
2023-05-06T10:34:37.058Z,0.4232
2023-05-06T10:35:45.081Z,0.4031
2023-05-06T10:36:53.085Z,0.4024
2023-05-06T10:38:01.304Z,0.4172
2023-05-06T10:39:09.284Z,0.4202
2023-05-06T10:40:17.342Z,0.4039
2023-05-06T10:41:25.450Z,0.4021
2023-05-06T10:42:33.492Z,0.3975
2023-05-06T10:43:41.603Z,0.4038
2023-05-06T10:44:49.528Z,0.4168
2023-05-06T10:45:57.722Z,0.4178
2023-05-06T10:47:05.737Z,0.4099
2023-05-06T10:48:13.786Z,0.4107
2023-05-06T10:49:21.933Z,0.4165
2023-05-06T10:50:29.924Z,0.4182
2023-05-06T10:51:38.009Z,0.4161
2023-05-06T10:52:46.113Z,0.4158
2023-05-06T10:53:54.098Z,0.4122
2023-05-06T10:55:02.261Z,0.4118
2023-05-06T10:56:10.151Z,0.4184
2023-05-06T10:57:18.260Z,0.4159
2023-05-06T10:58:26.463Z,0.4153
2023-05-06T10:59:34.478Z,0.4089
2023-05-06T11:00:42.537Z,0.4047
2023-05-06T11:01:50.494Z,0.4022
2023-05-06T11:02:58.774Z,0.4166
2023-05-06T11:04:06.867Z,0.4194
2023-05-06T11:05:14.787Z,0.4223
2023-05-06T11:06:22.855Z,0.4243
2023-05-06T11:07:30.849Z,0.4214
2023-05-06T11:08:38.911Z,0.4272
2023-05-06T11:09:46.994Z,0.4280
2023-05-06T11:10:55.058Z,0.4227
2023-05-06T11:12:03.125Z,0.4322
2023-05-06T11:13:11.159Z,0.4324
2023-05-06T11:14:19.443Z,0.4190
2023-05-06T11:15:27.297Z,0.4126
2023-05-06T11:16:37.000Z,0.4102
2023-05-06T11:17:48.333Z,0.4057
2023-05-06T11:18:56.458Z,0.4135
2023-05-06T11:20:04.394Z,0.4199
2023-05-06T11:21:12.495Z,0.4284
2023-05-06T11:22:20.444Z,0.4308
2023-05-06T11:23:28.759Z,0.4300
2023-05-06T11:24:36.651Z,0.4322
2023-05-06T11:25:44.740Z,0.4241
2023-05-06T11:26:52.844Z,0.4248
2023-05-06T11:28:00.889Z,0.4127
2023-05-06T11:29:09.011Z,0.4117
2023-05-06T11:30:17.286Z,0.4124
2023-05-06T11:31:25.225Z,0.4101
2023-05-06T11:32:33.190Z,0.4120
2023-05-06T11:33:41.125Z,0.4134
2023-05-06T11:34:49.132Z,0.4113
2023-05-06T11:35:57.280Z,0.4056
2023-05-06T11:37:05.366Z,0.4043
2023-05-06T11:38:13.514Z,0.4136
2023-05-06T11:39:21.481Z,0.4126
2023-05-06T11:40:29.440Z,0.4122
2023-05-06T11:41:37.831Z,0.4120
2023-05-06T11:42:45.667Z,0.4135
2023-05-06T11:43:53.770Z,0.4196
2023-05-06T11:45:01.824Z,0.4180
2023-05-06T11:46:09.936Z,0.4128
2023-05-06T11:47:17.908Z,0.4268
2023-05-06T11:48:25.987Z,0.4435
2023-05-06T11:49:35.537Z,0.4441
2023-05-06T11:50:42.106Z,0.4350
2023-05-06T11:51:50.152Z,0.4238
2023-05-06T11:52:58.190Z,0.4112
2023-05-06T11:54:06.218Z,0.4079
2023-05-06T11:55:14.349Z,0.4120
2023-05-06T11:56:22.470Z,0.4135
2023-05-06T11:57:30.415Z,0.4157
2023-05-06T11:58:38.568Z,0.4146
2023-05-06T11:59:46.485Z,0.4184
2023-05-06T12:00:54.564Z,0.4267
2023-05-06T12:02:02.758Z,0.4152
2023-05-06T12:03:10.784Z,0.4276
2023-05-06T12:04:18.904Z,0.4447
2023-05-06T12:05:26.841Z,0.4343
2023-05-06T12:06:34.895Z,0.4378
2023-05-06T12:07:42.988Z,0.4273
2023-05-06T12:08:51.058Z,0.4356
2023-05-06T12:09:59.255Z,0.4317
2023-05-06T12:11:07.097Z,0.4186
2023-05-06T12:12:15.288Z,0.4175
2023-05-06T12:13:23.476Z,0.4333
2023-05-06T12:14:31.347Z,0.4276
2023-05-06T12:15:39.420Z,0.4173
2023-05-06T12:16:47.564Z,0.4231
2023-05-06T12:17:55.854Z,0.4150
2023-05-06T12:19:03.852Z,0.4138
2023-05-06T12:20:11.946Z,0.4254
2023-05-06T12:21:19.834Z,0.4369
2023-05-06T12:22:27.874Z,0.4303
2023-05-06T12:23:35.895Z,0.4291
2023-05-06T12:24:43.996Z,0.4237
2023-05-06T12:25:51.985Z,0.4197
2023-05-06T12:27:00.176Z,0.4201
2023-05-06T12:28:08.198Z,0.4158
2023-05-06T12:29:16.435Z,0.4063
2023-05-06T12:30:24.330Z,0.4091
2023-05-06T12:31:32.369Z,0.4063
2023-05-06T12:32:40.476Z,0.4009
2023-05-06T12:33:48.600Z,0.4021
2023-05-06T12:34:56.734Z,0.4085
2023-05-06T12:36:04.681Z,0.4152
2023-05-06T12:37:12.698Z,0.4219
2023-05-06T12:38:20.919Z,0.4194
2023-05-06T12:39:28.992Z,0.4129
2023-05-06T12:40:36.965Z,0.4044
2023-05-06T12:41:45.036Z,0.4009
2023-05-06T12:42:53.129Z,0.3926
2023-05-06T12:44:01.221Z,0.4017
2023-05-06T12:45:09.305Z,0.4070
2023-05-06T12:46:17.515Z,0.4149
2023-05-06T12:47:25.567Z,0.4165
2023-05-06T12:48:33.426Z,0.4211
2023-05-06T12:49:41.559Z,0.4210
2023-05-06T12:50:49.635Z,0.4317
2023-05-06T12:51:57.702Z,0.4267
2023-05-06T12:53:05.744Z,0.4168
2023-05-06T12:54:13.780Z,0.4040
2023-05-06T12:55:21.941Z,0.4019
2023-05-06T12:56:30.083Z,0.4052
2023-05-06T12:57:38.012Z,0.4145
2023-05-06T12:58:46.152Z,0.4253
2023-05-06T12:59:54.228Z,0.4218
2023-05-06T13:01:02.243Z,0.4279
2023-05-06T13:02:10.327Z,0.4302
2023-05-06T13:03:18.360Z,0.4302
2023-05-06T13:04:26.418Z,0.4347
2023-05-06T13:05:34.729Z,0.4339
2023-05-06T13:06:42.505Z,0.4375
2023-05-06T13:07:50.545Z,0.4445
2023-05-06T13:08:58.633Z,0.4329
2023-05-06T13:10:06.820Z,0.4422
2023-05-06T13:11:14.796Z,0.4428
2023-05-06T13:12:22.840Z,0.4362
2023-05-06T13:13:30.892Z,0.4289
2023-05-06T13:14:40.409Z,0.4341
2023-05-06T13:15:47.030Z,0.4367
2023-05-06T13:16:55.156Z,0.4436
2023-05-06T13:18:03.366Z,0.4264
2023-05-06T13:19:21.268Z,0.4304
2023-05-06T13:20:24.226Z,0.4153
2023-05-06T13:21:32.176Z,0.4044
2023-05-06T13:22:53.158Z,0.4033
2023-05-06T13:23:53.193Z,0.4093
2023-05-06T13:25:01.427Z,0.4083
2023-05-06T13:26:09.352Z,0.4066
2023-05-06T13:27:17.472Z,0.4162
2023-05-06T13:28:25.777Z,0.4178
2023-05-06T13:29:33.492Z,0.4226
2023-05-06T13:30:41.795Z,0.4169
2023-05-06T13:31:49.698Z,0.4160
2023-05-06T13:32:57.786Z,0.4220
2023-05-06T13:34:05.932Z,0.4158
2023-05-06T13:35:13.864Z,0.4106
2023-05-06T13:36:21.897Z,0.4108
2023-05-06T13:37:30.094Z,0.4129
2023-05-06T13:38:38.087Z,0.4227
2023-05-06T13:39:46.229Z,0.4227
2023-05-06T13:40:54.158Z,0.4252
2023-05-06T13:42:02.259Z,0.4253
2023-05-06T13:43:10.331Z,0.4134
2023-05-06T13:44:18.476Z,0.3987
2023-05-06T13:45:26.584Z,0.4034
2023-05-06T13:46:34.686Z,0.4113
2023-05-06T13:47:42.657Z,0.4248
2023-05-06T13:48:50.719Z,0.4226
2023-05-06T13:49:58.795Z,0.4211
2023-05-06T13:51:06.877Z,0.4089
2023-05-06T13:52:14.869Z,0.4000
2023-05-06T13:53:23.173Z,0.4026
2023-05-06T13:54:31.083Z,0.4109
2023-05-06T13:55:39.077Z,0.4088
2023-05-06T13:56:47.174Z,0.4086
2023-05-06T13:57:55.216Z,0.4002
2023-05-06T13:59:03.284Z,0.4028
2023-05-06T14:00:11.420Z,0.4130
2023-05-06T14:01:19.520Z,0.4126
2023-05-06T14:02:27.698Z,0.4166
2023-05-06T14:03:35.632Z,0.4078
2023-05-06T14:04:43.692Z,0.4158
2023-05-06T14:05:51.782Z,0.4248
2023-05-06T14:06:59.717Z,0.4290
2023-05-06T14:08:07.945Z,0.4291
2023-05-06T14:09:15.963Z,0.4256